createdAt,value
2022-09-04T04:30:25.547Z,16.48
2022-09-04T04:31:25.597Z,16.42
2022-09-04T04:32:25.505Z,16.43
2022-09-04T04:33:25.490Z,16.45
2022-09-04T04:34:25.494Z,16.49
2022-09-04T04:35:25.480Z,16.43
2022-09-04T04:36:25.466Z,16.49
2022-09-04T04:37:25.477Z,16.49
2022-09-04T04:38:25.604Z,16.48
2022-09-04T04:39:30.002Z,16.35
2022-09-04T04:40:25.424Z,16.49
2022-09-04T04:41:25.410Z,16.42
2022-09-04T04:42:25.395Z,16.41
2022-09-04T04:43:25.422Z,16.49
2022-09-04T04:44:25.378Z,16.46
2022-09-04T04:45:25.377Z,16.48
2022-09-04T04:46:25.496Z,16.41
2022-09-04T04:47:25.346Z,16.41
2022-09-04T04:48:25.504Z,16.45
2022-09-04T04:49:25.321Z,16.50
2022-09-04T04:50:25.335Z,16.48
2022-09-04T04:51:25.327Z,16.43
2022-09-04T04:52:25.293Z,16.46
2022-09-04T04:53:25.281Z,16.48
2022-09-04T04:54:25.281Z,16.49
2022-09-04T04:55:25.279Z,16.50
2022-09-04T04:56:25.268Z,16.45
2022-09-04T04:57:25.236Z,16.43
2022-09-04T04:58:25.407Z,16.52
2022-09-04T04:59:25.211Z,16.50
2022-09-04T05:00:27.629Z,16.42
2022-09-04T05:01:25.334Z,16.43
2022-09-04T05:02:25.424Z,16.48
2022-09-04T05:03:25.182Z,16.46
2022-09-04T05:04:25.162Z,16.46
2022-09-04T05:05:25.151Z,16.50
2022-09-04T05:06:25.146Z,16.46
2022-09-04T05:07:25.168Z,16.50
2022-09-04T05:08:25.220Z,16.50
2022-09-04T05:09:25.105Z,16.52
2022-09-04T05:10:25.097Z,16.57
2022-09-04T05:11:25.087Z,16.60
2022-09-04T05:12:25.078Z,16.49
2022-09-04T05:13:25.106Z,16.48
2022-09-04T05:14:25.101Z,16.53
2022-09-04T05:15:25.040Z,16.58
2022-09-04T05:16:25.070Z,16.60
2022-09-04T05:17:25.022Z,16.58
2022-09-04T05:18:25.129Z,16.58
2022-09-04T05:19:25.036Z,16.66
2022-09-04T05:20:25.037Z,16.60
2022-09-04T05:21:24.982Z,16.61
2022-09-04T05:22:25.001Z,16.60
2022-09-04T05:23:29.055Z,16.58
2022-09-04T05:24:24.939Z,16.57
2022-09-04T05:25:24.949Z,16.63
2022-09-04T05:26:24.943Z,16.63
2022-09-04T05:27:24.903Z,16.66
2022-09-04T05:28:25.036Z,16.71
2022-09-04T05:29:28.150Z,16.63
2022-09-04T05:30:25.896Z,16.63
2022-09-04T05:31:24.946Z,16.67
2022-09-04T05:32:24.858Z,16.63
2022-09-04T05:33:24.855Z,16.64
2022-09-04T05:34:24.898Z,16.68
2022-09-04T05:35:24.843Z,16.64
2022-09-04T05:36:25.809Z,16.68
2022-09-04T05:37:24.808Z,16.67
2022-09-04T05:38:24.884Z,16.61
2022-09-04T05:39:24.828Z,16.75
2022-09-04T05:40:24.786Z,16.75
2022-09-04T05:41:24.754Z,16.82
2022-09-04T05:42:24.748Z,16.66
2022-09-04T05:43:24.740Z,16.71
2022-09-04T05:44:24.754Z,16.78
2022-09-04T05:45:24.715Z,16.71
2022-09-04T05:46:24.775Z,16.75
2022-09-04T05:47:28.576Z,16.88
2022-09-04T05:48:25.866Z,16.85
2022-09-04T05:49:24.664Z,16.83
2022-09-04T05:50:24.654Z,16.89
2022-09-04T05:51:24.660Z,16.82
2022-09-04T05:52:24.641Z,16.81
2022-09-04T05:53:24.698Z,16.70
2022-09-04T05:54:24.661Z,16.81
2022-09-04T05:55:24.609Z,16.83
2022-09-04T05:56:24.625Z,16.82
2022-09-04T05:57:24.687Z,16.88
2022-09-04T05:58:24.758Z,16.89
2022-09-04T05:59:24.564Z,16.89
2022-09-04T06:00:24.577Z,16.98
2022-09-04T06:01:24.595Z,16.97
2022-09-04T06:02:24.634Z,16.94
2022-09-04T06:03:24.624Z,17.01
2022-09-04T06:04:24.509Z,16.88
2022-09-04T06:05:24.492Z,16.88
2022-09-04T06:06:24.483Z,17.00
2022-09-04T06:07:24.468Z,17.04
2022-09-04T06:08:28.518Z,17.11
2022-09-04T06:09:24.471Z,17.03
2022-09-04T06:10:24.448Z,17.07
2022-09-04T06:11:24.433Z,17.06
2022-09-04T06:12:24.423Z,17.14
2022-09-04T06:13:24.563Z,17.12
2022-09-04T06:14:24.478Z,17.08
2022-09-04T06:15:24.384Z,17.07
2022-09-04T06:16:24.486Z,17.14
2022-09-04T06:17:24.362Z,17.08
2022-09-04T06:18:24.481Z,17.12
2022-09-04T06:19:24.342Z,17.31
2022-09-04T06:20:24.356Z,17.25
2022-09-04T06:21:24.342Z,17.31
2022-09-04T06:22:24.389Z,17.28
2022-09-04T06:23:24.303Z,17.34
2022-09-04T06:24:24.288Z,17.41
2022-09-04T06:25:24.306Z,17.38
2022-09-04T06:26:24.269Z,17.44
2022-09-04T06:27:24.271Z,17.49
2022-09-04T06:28:24.410Z,17.52
2022-09-04T06:29:24.245Z,17.64
2022-09-04T06:30:24.238Z,17.78
2022-09-04T06:31:24.259Z,17.71
2022-09-04T06:32:24.249Z,17.86
2022-09-04T06:33:24.211Z,17.89
2022-09-04T06:34:24.228Z,17.86
2022-09-04T06:35:24.170Z,17.92
2022-09-04T06:36:24.164Z,17.95
2022-09-04T06:37:24.166Z,18.11
2022-09-04T06:38:24.200Z,18.17
2022-09-04T06:39:24.159Z,18.15
2022-09-04T06:40:24.180Z,18.23
2022-09-04T06:41:24.124Z,18.37
2022-09-04T06:42:24.109Z,18.37
2022-09-04T06:43:24.109Z,18.51
2022-09-04T06:44:25.100Z,18.54
2022-09-04T06:45:24.098Z,18.55
2022-09-04T06:46:24.130Z,18.75
2022-09-04T06:47:24.082Z,18.70
2022-09-04T06:48:24.243Z,18.66
2022-09-04T06:49:24.045Z,18.70
2022-09-04T06:50:24.097Z,18.69
2022-09-04T06:51:24.034Z,18.72
2022-09-04T06:52:24.021Z,18.65
2022-09-04T06:53:23.983Z,18.47
2022-09-04T06:54:24.006Z,18.45
2022-09-04T06:55:23.961Z,18.54
2022-09-04T06:56:23.967Z,18.54
2022-09-04T06:57:23.959Z,18.69
2022-09-04T06:58:24.017Z,18.63
2022-09-04T06:59:23.937Z,18.62
2022-09-04T07:00:25.615Z,18.65
2022-09-04T07:01:23.998Z,18.54
2022-09-04T07:02:24.075Z,18.47
2022-09-04T07:03:23.873Z,18.55
2022-09-04T07:04:23.862Z,18.51
2022-09-04T07:05:23.871Z,18.48
2022-09-04T07:06:23.839Z,18.42
2022-09-04T07:07:23.880Z,18.42
2022-09-04T07:08:23.929Z,18.41
2022-09-04T07:09:23.802Z,18.36
2022-09-04T07:10:23.820Z,18.32
2022-09-04T07:11:23.782Z,18.27
2022-09-04T07:12:23.784Z,18.27
2022-09-04T07:13:23.797Z,18.35
2022-09-04T07:14:23.750Z,18.39
2022-09-04T07:15:23.770Z,18.54
2022-09-04T07:16:23.739Z,18.51
2022-09-04T07:17:23.714Z,18.52
2022-09-04T07:18:23.753Z,18.57
2022-09-04T07:19:23.752Z,18.78
2022-09-04T07:20:23.688Z,18.85
2022-09-04T07:21:23.711Z,19.07
2022-09-04T07:22:23.668Z,19.07
2022-09-04T07:23:23.655Z,19.13
2022-09-04T07:24:23.664Z,19.22
2022-09-04T07:25:23.648Z,19.29
2022-09-04T07:26:23.616Z,19.43
2022-09-04T07:27:23.609Z,19.59
2022-09-04T07:28:23.636Z,19.76
2022-09-04T07:29:25.899Z,19.66
2022-09-04T09:13:02.661Z,23.58
2022-09-04T09:14:02.637Z,23.68
2022-09-04T09:15:02.655Z,23.76
2022-09-04T09:16:02.611Z,23.95
2022-09-04T09:17:02.681Z,24.05
2022-09-04T09:18:02.633Z,24.12
2022-09-04T09:19:02.586Z,24.16
2022-09-04T09:20:02.563Z,24.27
2022-09-04T09:21:02.604Z,24.35
2022-09-04T09:22:02.571Z,24.39
2022-09-04T09:23:02.567Z,24.49
2022-09-04T09:24:02.545Z,24.40
2022-09-04T09:25:02.513Z,24.45
2022-09-04T09:26:02.500Z,24.60
2022-09-04T09:27:02.492Z,24.55
2022-09-04T09:28:02.494Z,24.55
2022-09-04T09:29:02.483Z,24.52
2022-09-04T09:30:02.457Z,24.58
2022-09-04T09:31:02.511Z,24.68
2022-09-04T09:32:03.984Z,24.85
2022-09-04T09:33:02.480Z,24.77
2022-09-04T09:34:02.492Z,24.78
2022-09-04T09:35:02.461Z,24.69
2022-09-04T09:36:02.419Z,24.68
2022-09-04T09:37:02.392Z,24.65
2022-09-04T09:38:04.468Z,24.62
2022-09-04T09:39:02.368Z,24.84
2022-09-04T09:40:02.466Z,24.96
2022-09-04T09:41:02.425Z,25.09
2022-09-04T09:42:02.364Z,25.27
2022-09-04T09:43:02.318Z,25.21
2022-09-04T09:44:02.312Z,25.35
2022-09-04T09:45:02.321Z,25.55
2022-09-04T09:46:02.389Z,25.60
2022-09-04T09:47:02.303Z,25.70
2022-09-04T09:48:02.271Z,25.67
2022-09-04T09:49:02.304Z,25.73
2022-09-04T09:50:02.239Z,25.72
2022-09-04T09:51:02.255Z,25.62
2022-09-04T09:52:02.247Z,25.52
2022-09-04T09:53:02.249Z,25.55
2022-09-04T09:54:02.217Z,25.72
2022-09-04T09:55:02.239Z,25.69
2022-09-04T09:56:02.175Z,25.62
2022-09-04T09:57:02.166Z,25.72
2022-09-04T09:58:02.193Z,25.77
2022-09-04T09:59:02.228Z,25.65
2022-09-04T10:00:02.184Z,25.75
2022-09-04T10:01:06.413Z,25.83
2022-09-04T10:02:03.179Z,25.75
2022-09-04T10:03:02.108Z,25.75
2022-09-04T10:04:02.100Z,25.85
2022-09-04T10:05:02.083Z,25.97
2022-09-04T10:06:02.147Z,25.98
2022-09-04T10:07:02.065Z,25.98
2022-09-04T10:08:02.055Z,26.01
2022-09-04T10:09:04.923Z,26.12
2022-09-04T10:10:03.034Z,26.09
2022-09-04T10:11:02.058Z,26.25
2022-09-04T10:12:02.482Z,26.20
2022-09-04T10:13:02.019Z,26.15
2022-09-04T10:14:01.996Z,26.23
2022-09-04T10:15:01.986Z,26.25
2022-09-04T10:16:01.974Z,26.32
2022-09-04T10:17:02.139Z,26.35
2022-09-04T10:18:01.956Z,26.30
2022-09-04T10:19:01.955Z,26.23
2022-09-04T10:20:01.923Z,26.35
2022-09-04T10:21:01.920Z,26.37
2022-09-04T10:22:01.942Z,26.45
2022-09-04T10:23:01.909Z,26.57
2022-09-04T10:24:01.929Z,26.52
2022-09-04T10:25:01.883Z,26.62
2022-09-04T10:26:01.861Z,26.55
2022-09-04T10:27:01.850Z,26.47
2022-09-04T10:28:01.865Z,26.39
2022-09-04T10:29:01.832Z,26.43
2022-09-04T10:30:01.851Z,26.43
2022-09-04T10:31:01.957Z,26.58
2022-09-04T10:32:01.795Z,26.65
2022-09-04T10:33:01.789Z,26.81
2022-09-04T10:34:01.792Z,26.88
2022-09-04T10:35:01.796Z,27.02
2022-09-04T10:36:01.753Z,26.84
2022-09-04T10:37:01.784Z,26.76
2022-09-04T10:38:01.733Z,26.76
2022-09-04T10:39:01.727Z,26.84
2022-09-04T10:40:01.781Z,26.99
2022-09-04T10:41:01.703Z,26.95
2022-09-04T10:42:01.710Z,27.06
2022-09-04T10:43:01.703Z,26.89
2022-09-04T10:44:01.690Z,26.82
2022-09-04T10:45:01.660Z,27.06
2022-09-04T10:46:01.719Z,27.13
2022-09-04T10:47:01.638Z,27.32
2022-09-04T10:48:01.633Z,27.44
2022-09-04T10:49:01.642Z,27.44
2022-09-04T10:50:01.603Z,27.51
2022-09-04T10:51:01.597Z,27.59
2022-09-04T10:52:01.606Z,27.51
2022-09-04T10:53:01.574Z,27.55
2022-09-04T10:54:06.817Z,27.54
2022-09-04T10:55:02.575Z,27.46
2022-09-04T10:56:01.544Z,27.39
2022-09-04T10:57:01.550Z,27.41
2022-09-04T10:58:01.518Z,27.44
2022-09-04T10:59:01.509Z,27.46
2022-09-04T11:00:01.529Z,27.47
2022-09-04T11:01:01.566Z,27.54
2022-09-04T11:02:01.555Z,27.57
2022-09-04T11:03:01.494Z,27.66
2022-09-04T11:04:01.464Z,27.74
2022-09-04T11:05:01.459Z,27.57
2022-09-04T11:06:01.459Z,27.51
2022-09-04T11:07:01.460Z,27.72
2022-09-04T11:08:01.456Z,27.77
2022-09-04T11:09:01.423Z,27.81
2022-09-04T11:10:07.933Z,27.87
2022-09-04T11:11:01.394Z,27.69
2022-09-04T11:12:01.389Z,27.77
2022-09-04T11:13:01.390Z,27.70
2022-09-04T11:14:01.371Z,27.74
2022-09-04T11:15:01.362Z,27.79
2022-09-04T11:16:01.356Z,27.84
2022-09-04T11:17:01.450Z,27.87
2022-09-04T11:18:01.317Z,27.92
2022-09-04T11:19:01.321Z,27.88
2022-09-04T11:20:01.356Z,28.00
2022-09-04T11:21:01.281Z,27.94
2022-09-04T11:22:01.276Z,27.70
2022-09-04T11:23:01.295Z,27.70
2022-09-04T11:24:01.258Z,27.66
2022-09-04T11:25:01.594Z,27.63
2022-09-04T11:26:01.256Z,27.63
2022-09-04T11:27:04.802Z,27.51
2022-09-04T11:28:02.242Z,27.46
2022-09-04T11:29:01.200Z,27.50
2022-09-04T11:30:01.196Z,27.51
2022-09-04T11:31:01.214Z,27.51
2022-09-04T11:32:01.214Z,27.47
2022-09-04T11:33:01.164Z,27.50
2022-09-04T11:34:01.157Z,27.36
2022-09-04T11:35:01.167Z,27.40
2022-09-04T11:36:01.154Z,27.55
2022-09-04T11:37:01.120Z,27.51
2022-09-04T11:38:01.149Z,27.75
2022-09-04T11:39:01.100Z,27.85
2022-09-04T11:40:01.163Z,27.75
2022-09-04T11:41:01.086Z,27.70
2022-09-04T11:42:01.065Z,27.72
2022-09-04T11:43:01.107Z,27.75
2022-09-04T11:44:01.062Z,27.79
2022-09-04T11:45:01.068Z,27.99
2022-09-04T11:46:01.099Z,28.04
2022-09-04T11:47:01.040Z,28.09
2022-09-04T11:48:01.015Z,28.22
2022-09-04T11:49:01.024Z,28.09
2022-09-04T11:50:01.001Z,28.12
2022-09-04T11:51:00.976Z,28.19
2022-09-04T11:52:00.963Z,28.00
2022-09-04T11:53:00.956Z,27.90
2022-09-04T11:54:00.942Z,27.88
2022-09-04T11:55:00.958Z,27.99
2022-09-04T11:56:00.953Z,28.12
2022-09-04T11:57:00.918Z,28.22
2022-09-04T11:58:00.901Z,28.14
2022-09-04T11:59:00.895Z,28.18
2022-09-04T12:00:00.880Z,28.14
2022-09-04T12:01:00.885Z,28.03
2022-09-04T12:02:00.947Z,27.99
2022-09-04T12:03:00.846Z,27.84
2022-09-04T12:04:00.879Z,27.75
2022-09-04T12:05:00.828Z,27.67
2022-09-04T12:06:00.812Z,27.60
2022-09-04T12:07:02.267Z,27.65
2022-09-04T12:08:00.836Z,27.66
2022-09-04T12:09:00.790Z,27.57
2022-09-04T12:10:00.783Z,27.40
2022-09-04T12:11:00.766Z,27.44
2022-09-04T12:12:00.759Z,27.66
2022-09-04T12:13:00.770Z,27.72
2022-09-04T12:14:01.742Z,27.67
2022-09-04T12:15:05.615Z,27.69
2022-09-04T12:16:01.796Z,27.65
2022-09-04T12:17:00.730Z,27.67
2022-09-04T12:18:00.696Z,27.55
2022-09-04T12:19:00.688Z,27.72
2022-09-04T12:20:01.977Z,27.75
2022-09-04T12:21:00.657Z,27.82
2022-09-04T12:22:00.650Z,27.94
2022-09-04T12:23:00.684Z,27.96
2022-09-04T12:24:00.640Z,27.96
2022-09-04T12:25:00.671Z,27.92
2022-09-04T12:26:00.612Z,27.94
2022-09-04T12:27:00.627Z,27.96
2022-09-04T12:28:00.586Z,28.06
2022-09-04T12:29:00.578Z,28.04
2022-09-04T12:30:00.585Z,27.74
2022-09-04T12:31:00.586Z,27.49
2022-09-04T12:32:00.580Z,27.29
2022-09-04T12:33:00.556Z,27.14
2022-09-04T12:34:00.531Z,27.12
2022-09-04T12:35:00.553Z,26.97
2022-09-04T12:36:00.509Z,27.03
2022-09-04T12:37:00.529Z,27.00
2022-09-04T12:38:00.523Z,26.87
2022-09-04T12:39:00.495Z,26.82
2022-09-04T12:40:00.548Z,26.82
2022-09-04T12:41:00.485Z,26.89
2022-09-04T12:42:00.445Z,26.99
2022-09-04T12:43:00.449Z,27.02
2022-09-04T12:44:00.443Z,27.10
2022-09-04T12:45:00.446Z,27.12
2022-09-04T12:46:03.274Z,27.17
2022-09-04T12:47:00.400Z,27.14
2022-09-04T12:48:00.407Z,27.22
2022-09-04T12:49:00.384Z,27.36
2022-09-04T12:50:00.357Z,27.39
2022-09-04T12:51:00.423Z,27.43
2022-09-04T12:52:00.343Z,27.55
2022-09-04T12:53:00.331Z,27.60
2022-09-04T12:54:00.322Z,27.63
2022-09-04T12:55:00.303Z,27.69
2022-09-04T12:56:00.318Z,27.69
2022-09-04T12:57:00.314Z,27.65
2022-09-04T12:58:00.281Z,27.74
2022-09-04T12:59:00.273Z,27.87
2022-09-04T13:00:00.267Z,27.92
2022-09-04T13:01:00.350Z,27.79
2022-09-04T13:02:00.522Z,27.79
2022-09-04T13:03:00.262Z,27.77
2022-09-04T13:04:00.216Z,27.87
2022-09-04T13:05:00.218Z,27.94
2022-09-04T13:06:00.242Z,28.02
2022-09-04T13:07:00.212Z,27.97
2022-09-04T13:08:00.176Z,28.00
2022-09-04T13:09:00.179Z,27.96
2022-09-04T13:10:00.173Z,27.93
2022-09-04T13:11:00.144Z,27.82
2022-09-04T13:12:00.131Z,27.79
2022-09-04T13:13:00.139Z,27.67
2022-09-04T13:14:00.134Z,27.66
2022-09-04T13:15:00.119Z,27.51
2022-09-04T13:16:00.164Z,27.47
2022-09-04T13:17:00.082Z,27.44
2022-09-04T13:18:00.068Z,27.29
2022-09-04T13:19:00.071Z,27.24
2022-09-04T13:20:00.051Z,27.28
2022-09-04T13:21:00.037Z,27.40
2022-09-04T13:22:00.086Z,27.41
2022-09-04T13:23:00.013Z,27.44
2022-09-04T13:24:00.001Z,27.43
2022-09-04T13:24:59.993Z,27.43
2022-09-04T13:25:59.979Z,27.43
2022-09-04T13:26:59.994Z,27.37
2022-09-04T13:27:59.972Z,27.36
2022-09-04T13:28:59.948Z,27.34
2022-09-04T13:30:03.289Z,27.29
2022-09-04T13:30:59.952Z,27.31
2022-09-04T13:31:59.948Z,27.36
2022-09-04T13:32:59.931Z,27.27
2022-09-04T13:33:59.915Z,27.34
2022-09-04T13:34:59.895Z,27.36
2022-09-04T13:35:59.894Z,27.37
2022-09-04T13:36:59.865Z,27.39
2022-09-04T13:37:59.861Z,27.43
2022-09-04T13:38:59.868Z,27.44
2022-09-04T13:39:59.896Z,27.40
2022-09-04T13:40:59.839Z,27.43
2022-09-04T13:41:59.834Z,27.46
2022-09-04T13:42:59.800Z,27.50
2022-09-04T13:43:59.794Z,27.54
2022-09-04T13:44:59.803Z,27.57
2022-09-04T13:45:59.770Z,27.66
2022-09-04T13:46:59.843Z,27.66
2022-09-04T13:47:59.783Z,27.69
2022-09-04T13:48:59.734Z,27.66
2022-09-04T13:49:59.745Z,27.63
2022-09-04T13:50:59.746Z,27.69
2022-09-04T13:51:59.736Z,27.70
2022-09-04T13:52:59.795Z,27.72
2022-09-04T13:53:59.728Z,27.65
2022-09-04T13:54:59.675Z,27.65
2022-09-04T13:55:59.671Z,27.65
2022-09-04T13:56:59.655Z,27.57
2022-09-04T13:57:59.633Z,27.63
2022-09-04T13:58:59.629Z,27.67
2022-09-04T13:59:59.672Z,27.65
2022-09-04T14:00:59.663Z,27.63
2022-09-04T14:01:59.629Z,27.75
2022-09-04T14:02:59.602Z,27.69
2022-09-04T14:03:59.640Z,27.78
2022-09-04T14:04:59.562Z,27.79
2022-09-04T14:05:59.577Z,27.75
2022-09-04T14:06:59.560Z,27.74
2022-09-04T14:07:59.530Z,27.84
2022-09-04T14:09:04.932Z,27.84
2022-09-04T14:10:00.509Z,27.84
2022-09-04T14:10:59.509Z,27.78
2022-09-04T14:11:59.497Z,27.75
2022-09-04T14:12:59.514Z,27.74
2022-09-04T14:13:59.505Z,27.72
2022-09-04T14:14:59.464Z,27.59
2022-09-04T14:15:59.474Z,27.67
2022-09-04T14:16:59.436Z,27.69
2022-09-04T14:17:59.440Z,27.65
2022-09-04T14:18:59.422Z,27.62
2022-09-04T14:19:59.438Z,27.69
2022-09-04T14:21:01.020Z,27.65
2022-09-04T14:21:59.384Z,27.70
2022-09-04T14:22:59.372Z,27.74
2022-09-04T14:23:59.396Z,27.77
2022-09-04T14:24:59.362Z,27.74
2022-09-04T14:25:59.338Z,27.63
2022-09-04T14:26:59.376Z,27.51
2022-09-04T14:27:59.322Z,27.49
2022-09-04T14:28:59.332Z,27.54
2022-09-04T14:29:59.303Z,27.47
2022-09-04T14:30:59.347Z,27.50
2022-09-04T14:31:59.315Z,27.46
2022-09-04T14:33:00.874Z,27.44
2022-09-04T14:33:59.279Z,27.29
2022-09-04T14:34:59.242Z,27.37
2022-09-04T14:35:59.238Z,27.41
2022-09-04T14:36:59.263Z,27.41
2022-09-04T14:37:59.229Z,27.40
2022-09-04T14:38:59.206Z,27.32
2022-09-04T14:39:59.280Z,27.34
2022-09-04T14:40:59.187Z,27.31
2022-09-04T14:41:59.174Z,27.36
2022-09-04T14:42:59.197Z,27.36
2022-09-04T14:43:59.153Z,27.32
2022-09-04T14:44:59.146Z,27.43
2022-09-04T14:45:59.135Z,27.43
2022-09-04T14:46:59.234Z,27.41
2022-09-04T14:47:59.113Z,27.49
2022-09-04T14:48:59.114Z,27.46
2022-09-04T14:49:59.105Z,27.49
2022-09-04T14:50:59.081Z,27.46
2022-09-04T14:51:59.094Z,27.51
2022-09-04T14:52:59.108Z,27.50
2022-09-04T14:53:59.048Z,27.51
2022-09-04T14:54:59.059Z,27.54
2022-09-04T14:55:59.088Z,27.49
2022-09-04T14:56:59.010Z,27.51
2022-09-04T14:57:58.996Z,27.50
2022-09-04T14:58:58.997Z,27.49
2022-09-04T14:59:58.999Z,27.55
2022-09-04T15:00:59.074Z,27.57
2022-09-04T15:01:59.057Z,27.57
2022-09-04T15:02:58.965Z,27.57
2022-09-04T15:03:59.116Z,27.66
2022-09-04T15:04:58.931Z,27.62
2022-09-04T15:05:58.917Z,27.57
2022-09-04T15:07:11.249Z,27.70
2022-09-04T15:07:59.895Z,27.65
2022-09-04T15:08:58.920Z,27.67
2022-09-04T15:09:58.882Z,27.67
2022-09-04T15:10:58.864Z,27.62
2022-09-04T15:12:21.014Z,27.62
2022-09-04T15:12:59.854Z,27.55
2022-09-04T15:13:58.923Z,27.51
2022-09-04T15:14:58.819Z,27.46
2022-09-04T15:15:58.894Z,27.47
2022-09-04T15:16:58.821Z,27.44
2022-09-04T15:17:58.790Z,27.39
2022-09-04T15:18:58.801Z,27.34
2022-09-04T15:19:58.788Z,27.34
2022-09-04T15:20:58.769Z,27.21
2022-09-04T15:21:58.776Z,27.22
2022-09-04T15:22:58.739Z,27.18
2022-09-04T15:23:58.730Z,27.19
2022-09-04T15:24:58.762Z,27.14
2022-09-04T15:25:59.909Z,27.06
2022-09-04T15:26:58.689Z,27.06
2022-09-04T15:27:58.691Z,27.07
2022-09-04T15:28:58.698Z,27.02
2022-09-04T15:29:58.657Z,27.09
2022-09-04T15:30:58.695Z,27.00
2022-09-04T15:31:58.708Z,27.04
2022-09-04T15:32:58.620Z,27.03
2022-09-04T15:33:58.615Z,26.99
2022-09-04T15:34:58.600Z,26.94
2022-09-04T15:35:58.615Z,26.91
2022-09-04T15:36:58.594Z,26.97
2022-09-04T15:38:01.849Z,26.91
2022-09-04T15:38:58.608Z,26.94
2022-09-04T15:39:58.664Z,26.84
2022-09-04T15:41:17.127Z,26.91
2022-09-04T15:41:59.538Z,26.94
2022-09-04T15:42:58.545Z,26.95
2022-09-04T15:43:58.557Z,26.88
2022-09-04T15:44:58.517Z,26.88
2022-09-04T15:45:58.530Z,26.92
2022-09-04T15:46:58.474Z,26.89
2022-09-04T15:47:58.467Z,26.85
2022-09-04T15:48:58.459Z,26.89
2022-09-04T15:49:58.498Z,26.88
2022-09-04T15:50:58.439Z,26.84
2022-09-04T15:51:58.435Z,26.88
2022-09-04T15:52:58.409Z,26.85
2022-09-04T15:53:58.413Z,26.73
2022-09-04T15:54:58.415Z,26.73
2022-09-04T15:55:58.406Z,26.72
2022-09-04T15:56:58.381Z,26.80
2022-09-04T15:57:58.364Z,26.77
2022-09-04T15:58:58.351Z,26.76
2022-09-04T15:59:58.363Z,26.73
2022-09-04T16:00:58.373Z,26.75
2022-09-04T16:01:58.410Z,26.63
2022-09-04T16:02:58.352Z,26.62
2022-09-04T16:03:58.302Z,26.62
2022-09-04T16:04:58.286Z,26.60
2022-09-04T16:05:58.281Z,26.60
2022-09-04T16:06:58.361Z,26.60
2022-09-04T16:07:58.278Z,26.57
2022-09-04T16:08:58.266Z,26.57
2022-09-04T16:09:58.232Z,26.60
2022-09-04T16:10:58.222Z,26.55
2022-09-04T16:11:58.236Z,26.52
2022-09-04T16:12:58.234Z,26.54
2022-09-04T16:13:58.637Z,26.50
2022-09-04T16:14:58.174Z,26.50
2022-09-04T16:16:03.528Z,26.50
2022-09-04T16:16:59.160Z,26.44
2022-09-04T16:17:58.184Z,26.47
2022-09-04T16:18:58.160Z,26.54
2022-09-04T16:19:58.145Z,26.45
2022-09-04T16:20:58.119Z,26.43
2022-09-04T16:21:58.113Z,26.35
2022-09-04T16:22:58.122Z,26.32
2022-09-04T16:23:58.094Z,26.32
2022-09-04T16:24:58.089Z,26.26
2022-09-04T16:25:58.066Z,26.21
2022-09-04T16:26:58.085Z,26.25
2022-09-04T16:27:58.050Z,26.13
2022-09-04T16:28:58.055Z,26.12
2022-09-04T16:29:58.052Z,26.07
2022-09-04T16:30:58.144Z,26.12
2022-09-04T16:31:58.063Z,26.02
2022-09-04T16:32:58.007Z,26.05
2022-09-04T16:33:57.988Z,26.05
2022-09-04T16:34:57.998Z,26.01
2022-09-04T16:35:58.002Z,25.97
2022-09-04T16:36:57.957Z,25.97
2022-09-04T16:37:57.987Z,25.94
2022-09-04T16:38:57.942Z,25.82
2022-09-04T16:39:58.004Z,25.83
2022-09-04T16:40:57.913Z,25.85
2022-09-04T16:41:57.941Z,25.85
2022-09-04T16:42:57.887Z,25.83
2022-09-04T16:43:59.840Z,25.77
2022-09-04T16:44:57.895Z,25.75
2022-09-04T16:45:57.919Z,25.65
2022-09-04T16:46:57.915Z,25.64
2022-09-04T16:47:57.870Z,25.58
2022-09-04T16:48:57.943Z,25.57
2022-09-04T16:49:57.938Z,25.52
2022-09-04T16:50:57.836Z,25.51
2022-09-04T16:51:57.797Z,25.39
2022-09-04T16:53:13.533Z,25.43
2022-09-04T16:53:58.827Z,25.39
2022-09-04T16:54:57.772Z,25.39
2022-09-04T16:55:57.762Z,25.42
2022-09-04T16:57:13.087Z,25.33
2022-09-04T16:57:58.784Z,25.35
2022-09-04T16:58:57.715Z,25.23
2022-09-04T16:59:57.809Z,25.24
2022-09-04T17:00:57.705Z,25.30
2022-09-04T17:01:58.809Z,25.20
2022-09-04T17:02:57.881Z,25.23
2022-09-04T17:04:12.825Z,25.15
2022-09-04T17:04:58.656Z,25.21
2022-09-04T17:05:57.648Z,25.24
2022-09-04T17:06:57.662Z,25.17
2022-09-04T17:07:59.300Z,25.17
2022-09-04T17:08:57.646Z,25.03
2022-09-04T17:09:57.618Z,25.09
2022-09-04T17:10:57.590Z,25.05
2022-09-04T17:11:57.583Z,25.02
2022-09-04T17:12:57.575Z,24.96
2022-09-04T17:13:57.566Z,24.91
2022-09-04T17:14:57.567Z,24.93
2022-09-04T17:15:57.575Z,24.96
2022-09-04T17:16:57.526Z,24.88
2022-09-04T17:17:57.509Z,24.83
2022-09-04T17:18:57.521Z,24.80
2022-09-04T17:19:57.532Z,24.80
2022-09-04T17:26:39.785Z,24.80
2022-09-04T17:28:24.855Z,24.73
2022-09-04T17:28:57.523Z,24.69
2022-09-04T17:29:01.749Z,24.71
2022-09-04T17:29:09.740Z,24.73
2022-09-04T17:29:10.416Z,24.62
2022-09-04T17:29:13.980Z,24.58
2022-09-04T17:29:15.826Z,24.62
2022-09-04T17:29:29.685Z,24.57
2022-09-04T17:29:58.384Z,24.42
2022-09-04T17:30:57.400Z,24.49
2022-09-04T17:31:57.369Z,24.45
2022-09-04T17:40:31.781Z,24.53
2022-09-04T17:40:34.874Z,24.39
2022-09-04T17:40:36.139Z,24.42
2022-09-04T17:40:47.639Z,24.35
2022-09-04T17:40:53.609Z,24.35
2022-09-04T17:40:54.443Z,24.40
2022-09-04T17:40:54.772Z,24.35
2022-09-04T17:40:56.466Z,24.42
2022-09-04T17:41:39.792Z,24.27
2022-09-04T17:42:09.427Z,24.28
2022-09-04T17:43:21.717Z,24.24
2022-09-04T17:43:58.253Z,24.30
2022-09-04T17:44:57.222Z,24.25
2022-09-04T17:45:57.308Z,24.27
2022-09-04T17:46:57.853Z,24.21
2022-09-04T17:48:01.426Z,24.22
2022-09-04T17:48:57.199Z,24.18
2022-09-04T17:49:57.190Z,24.10
2022-09-04T17:50:57.182Z,24.15
2022-09-04T17:51:57.461Z,24.03
2022-09-04T17:52:57.242Z,24.05
2022-09-04T17:53:57.147Z,23.95
2022-09-04T17:54:57.154Z,24.02
2022-09-04T17:55:57.108Z,23.90
2022-09-04T17:56:57.125Z,23.90
2022-09-04T17:57:57.127Z,23.90
2022-09-04T17:58:57.072Z,23.90
2022-09-04T17:59:57.071Z,23.87
2022-09-04T18:01:15.097Z,23.75
2022-09-04T18:01:58.105Z,23.75
2022-09-04T18:02:57.083Z,23.69
2022-09-04T18:04:02.864Z,23.69
2022-09-04T18:04:58.021Z,23.72
2022-09-04T18:05:57.022Z,23.65
2022-09-04T18:06:57.021Z,23.69
2022-09-04T18:08:08.230Z,23.68
2022-09-04T18:08:57.985Z,23.63
2022-09-04T18:09:56.990Z,23.58
2022-09-04T18:10:56.961Z,23.66
2022-09-04T18:12:00.291Z,23.63
2022-09-04T18:12:56.929Z,23.48
2022-09-04T18:13:56.957Z,23.53
2022-09-04T18:15:32.148Z,23.47
2022-09-04T18:15:57.916Z,23.47
2022-09-04T18:17:11.737Z,23.48
2022-09-04T18:17:57.878Z,23.48
2022-09-04T18:18:56.899Z,23.43
2022-09-04T18:19:56.852Z,23.39
2022-09-04T18:20:56.844Z,23.40
2022-09-04T18:22:15.773Z,23.32
2022-09-04T18:22:57.816Z,23.22
2022-09-04T18:23:56.856Z,23.25
2022-09-04T18:24:56.798Z,23.31
2022-09-04T18:25:56.791Z,23.22
2022-09-04T18:26:56.790Z,23.22
2022-09-04T18:28:11.677Z,23.16
2022-09-04T18:28:57.773Z,23.16
2022-09-04T18:33:50.516Z,23.16
2022-09-04T18:37:05.990Z,23.07
2022-09-04T18:37:06.060Z,23.07
2022-09-04T18:37:08.683Z,23.07
2022-09-04T18:37:17.227Z,23.09
2022-09-04T18:37:23.764Z,23.04
2022-09-04T18:37:25.237Z,23.07
2022-09-04T18:37:26.213Z,23.01
2022-09-04T18:37:57.725Z,23.04
2022-09-04T18:39:08.142Z,23.04
2022-09-04T18:39:57.725Z,22.92
2022-09-04T18:44:55.295Z,22.90
2022-09-04T18:48:14.193Z,22.95
2022-09-04T18:48:25.262Z,22.88
2022-09-04T18:50:21.133Z,22.98
2022-09-04T18:50:30.864Z,23.15
2022-09-04T18:50:34.460Z,23.01
2022-09-04T18:50:39.792Z,23.00
2022-09-04T18:50:43.762Z,23.07
2022-09-04T18:50:45.857Z,23.16
2022-09-04T18:51:03.067Z,23.20
2022-09-04T18:51:14.105Z,23.25
2022-09-04T18:51:57.544Z,23.13
2022-09-04T18:52:56.861Z,23.16
2022-09-04T18:53:56.586Z,23.19
2022-09-04T18:54:56.478Z,23.15
2022-09-04T18:55:56.470Z,23.09
2022-09-04T18:56:56.478Z,23.15
2022-09-04T18:57:56.448Z,23.19
2022-09-04T18:58:56.457Z,23.22
2022-09-04T19:00:08.390Z,23.23
2022-09-04T19:00:57.607Z,23.20
2022-09-04T19:01:56.628Z,23.19
2022-09-04T19:02:56.405Z,23.23
2022-09-04T19:03:56.409Z,23.19
2022-09-04T19:04:56.400Z,23.15